sensor_id;sensor_type;location;lat;lon;timestamp;temperature;humidity
1778;DHT22;886;50.082;8.222;2023-04-25T00:01:29;10.40;99.90
1778;DHT22;886;50.082;8.222;2023-04-25T00:03:59;10.40;99.90
1778;DHT22;886;50.082;8.222;2023-04-25T00:06:28;10.50;99.90
1778;DHT22;886;50.082;8.222;2023-04-25T00:08:59;10.50;99.90
1778;DHT22;886;50.082;8.222;2023-04-25T00:11:27;10.50;99.90
1778;DHT22;886;50.082;8.222;2023-04-25T00:13:55;10.40;99.90
1778;DHT22;886;50.082;8.222;2023-04-25T00:16:23;10.50;99.90
1778;DHT22;886;50.082;8.222;2023-04-25T00:18:50;10.40;99.90
1778;DHT22;886;50.082;8.222;2023-04-25T00:21:23;10.40;99.90
1778;DHT22;886;50.082;8.222;2023-04-25T00:23:52;10.40;99.90
1778;DHT22;886;50.082;8.222;2023-04-25T00:26:20;10.30;99.90
1778;DHT22;886;50.082;8.222;2023-04-25T00:28:48;10.30;99.90
1778;DHT22;886;50.082;8.222;2023-04-25T00:31:19;10.30;99.90
1778;DHT22;886;50.082;8.222;2023-04-25T00:33:48;10.30;99.90
1778;DHT22;886;50.082;8.222;2023-04-25T00:36:15;10.40;99.90
1778;DHT22;886;50.082;8.222;2023-04-25T00:38:44;10.40;99.90
1778;DHT22;886;50.082;8.222;2023-04-25T00:41:17;10.40;99.90
1778;DHT22;886;50.082;8.222;2023-04-25T00:43:46;10.40;99.90
1778;DHT22;886;50.082;8.222;2023-04-25T00:46:19;10.30;99.90
1778;DHT22;886;50.082;8.222;2023-04-25T00:48:50;10.40;99.90
1778;DHT22;886;50.082;8.222;2023-04-25T00:51:21;10.40;99.90
1778;DHT22;886;50.082;8.222;2023-04-25T00:53:49;10.40;99.90
1778;DHT22;886;50.082;8.222;2023-04-25T00:56:18;10.40;99.90
1778;DHT22;886;50.082;8.222;2023-04-25T00:58:45;10.30;99.90
1778;DHT22;886;50.082;8.222;2023-04-25T01:01:12;10.40;99.90
1778;DHT22;886;50.082;8.222;2023-04-25T01:03:41;10.30;99.90
1778;DHT22;886;50.082;8.222;2023-04-25T01:06:12;10.30;99.90
1778;DHT22;886;50.082;8.222;2023-04-25T01:08:45;10.10;99.90
1778;DHT22;886;50.082;8.222;2023-04-25T01:11:16;10.00;99.90
1778;DHT22;886;50.082;8.222;2023-04-25T01:13:43;10.10;99.90
1778;DHT22;886;50.082;8.222;2023-04-25T01:16:15;10.00;99.90
1778;DHT22;886;50.082;8.222;2023-04-25T01:18:45;10.10;99.90
1778;DHT22;886;50.082;8.222;2023-04-25T01:21:17;10.10;99.90
1778;DHT22;886;50.082;8.222;2023-04-25T01:23:45;10.10;99.90
1778;DHT22;886;50.082;8.222;2023-04-25T01:26:12;10.10;99.90
1778;DHT22;886;50.082;8.222;2023-04-25T01:28:40;10.10;99.90
1778;DHT22;886;50.082;8.222;2023-04-25T01:31:08;10.20;99.90
1778;DHT22;886;50.082;8.222;2023-04-25T01:33:36;10.20;99.90
1778;DHT22;886;50.082;8.222;2023-04-25T01:36:05;10.10;99.90
1778;DHT22;886;50.082;8.222;2023-04-25T01:38:34;10.10;99.90
1778;DHT22;886;50.082;8.222;2023-04-25T01:41:02;10.10;99.90
1778;DHT22;886;50.082;8.222;2023-04-25T01:43:29;10.10;99.90
1778;DHT22;886;50.082;8.222;2023-04-25T01:45:57;10.10;99.90
1778;DHT22;886;50.082;8.222;2023-04-25T01:48:24;10.10;99.90
1778;DHT22;886;50.082;8.222;2023-04-25T01:50:52;10.10;99.90
1778;DHT22;886;50.082;8.222;2023-04-25T01:53:22;10.00;99.90
1778;DHT22;886;50.082;8.222;2023-04-25T01:55:58;10.00;99.90
1778;DHT22;886;50.082;8.222;2023-04-25T01:58:28;10.00;99.90
1778;DHT22;886;50.082;8.222;2023-04-25T02:00:55;9.90;99.90
1778;DHT22;886;50.082;8.222;2023-04-25T02:03:22;9.90;99.90
1778;DHT22;886;50.082;8.222;2023-04-25T02:05:50;9.90;99.90
1778;DHT22;886;50.082;8.222;2023-04-25T02:08:21;9.90;99.90
1778;DHT22;886;50.082;8.222;2023-04-25T02:10:48;9.90;99.90
1778;DHT22;886;50.082;8.222;2023-04-25T02:13:23;9.90;99.90
1778;DHT22;886;50.082;8.222;2023-04-25T02:15:57;9.90;99.90
1778;DHT22;886;50.082;8.222;2023-04-25T02:18:24;9.80;99.90
1778;DHT22;886;50.082;8.222;2023-04-25T02:20:53;9.80;99.90
1778;DHT22;886;50.082;8.222;2023-04-25T02:23:23;9.70;99.90
1778;DHT22;886;50.082;8.222;2023-04-25T02:25:53;9.70;99.90
1778;DHT22;886;50.082;8.222;2023-04-25T02:28:26;9.80;99.90
1778;DHT22;886;50.082;8.222;2023-04-25T02:30:53;9.80;99.90
1778;DHT22;886;50.082;8.222;2023-04-25T02:33:24;9.80;99.90
1778;DHT22;886;50.082;8.222;2023-04-25T02:35:51;9.50;99.90
1778;DHT22;886;50.082;8.222;2023-04-25T02:38:21;9.50;99.90
1778;DHT22;886;50.082;8.222;2023-04-25T02:40:49;9.50;99.90
1778;DHT22;886;50.082;8.222;2023-04-25T02:43:18;9.50;99.90
1778;DHT22;886;50.082;8.222;2023-04-25T02:45:47;9.50;99.90
1778;DHT22;886;50.082;8.222;2023-04-25T02:48:17;9.50;99.90
1778;DHT22;886;50.082;8.222;2023-04-25T02:50:45;9.50;99.90
1778;DHT22;886;50.082;8.222;2023-04-25T02:53:12;9.50;99.90
1778;DHT22;886;50.082;8.222;2023-04-25T02:55:40;9.50;99.90
1778;DHT22;886;50.082;8.222;2023-04-25T02:58:07;9.40;99.90
1778;DHT22;886;50.082;8.222;2023-04-25T03:00:35;9.50;99.90
1778;DHT22;886;50.082;8.222;2023-04-25T03:03:04;9.50;99.90
1778;DHT22;886;50.082;8.222;2023-04-25T03:05:31;9.40;99.90
1778;DHT22;886;50.082;8.222;2023-04-25T03:07:58;9.50;99.90
1778;DHT22;886;50.082;8.222;2023-04-25T03:10:25;9.50;99.90
1778;DHT22;886;50.082;8.222;2023-04-25T03:13:12;9.60;99.90
1778;DHT22;886;50.082;8.222;2023-04-25T03:15:43;9.50;99.90
1778;DHT22;886;50.082;8.222;2023-04-25T03:18:11;9.50;99.90
1778;DHT22;886;50.082;8.222;2023-04-25T03:20:38;9.50;99.90
1778;DHT22;886;50.082;8.222;2023-04-25T03:23:32;9.50;99.90
1778;DHT22;886;50.082;8.222;2023-04-25T03:26:02;9.50;99.90
1778;DHT22;886;50.082;8.222;2023-04-25T03:28:30;9.50;99.90
1778;DHT22;886;50.082;8.222;2023-04-25T03:31:03;9.50;99.90
1778;DHT22;886;50.082;8.222;2023-04-25T03:33:32;9.50;99.90
1778;DHT22;886;50.082;8.222;2023-04-25T03:35:59;9.30;99.90
1778;DHT22;886;50.082;8.222;2023-04-25T03:38:30;9.20;99.90
1778;DHT22;886;50.082;8.222;2023-04-25T03:40:57;9.20;99.90
1778;DHT22;886;50.082;8.222;2023-04-25T03:43:24;9.20;99.90
1778;DHT22;886;50.082;8.222;2023-04-25T03:45:55;9.00;99.90
1778;DHT22;886;50.082;8.222;2023-04-25T03:48:22;8.90;99.90
1778;DHT22;886;50.082;8.222;2023-04-25T03:50:53;8.80;99.90
1778;DHT22;886;50.082;8.222;2023-04-25T03:53:21;8.70;99.90
1778;DHT22;886;50.082;8.222;2023-04-25T03:55:48;8.70;99.90
1778;DHT22;886;50.082;8.222;2023-04-25T03:58:15;8.60;99.90
1778;DHT22;886;50.082;8.222;2023-04-25T04:00:42;8.60;99.90
1778;DHT22;886;50.082;8.222;2023-04-25T04:03:10;8.60;99.90
1778;DHT22;886;50.082;8.222;2023-04-25T04:05:37;8.50;99.90
1778;DHT22;886;50.082;8.222;2023-04-25T04:08:08;8.50;99.90
1778;DHT22;886;50.082;8.222;2023-04-25T04:10:38;8.50;99.90
1778;DHT22;886;50.082;8.222;2023-04-25T04:13:12;8.50;99.90
1778;DHT22;886;50.082;8.222;2023-04-25T04:15:39;8.60;99.90
1778;DHT22;886;50.082;8.222;2023-04-25T04:18:12;8.60;99.90
1778;DHT22;886;50.082;8.222;2023-04-25T04:20:57;8.60;99.90
1778;DHT22;886;50.082;8.222;2023-04-25T04:23:28;8.60;99.90
1778;DHT22;886;50.082;8.222;2023-04-25T04:25:56;8.60;99.90
1778;DHT22;886;50.082;8.222;2023-04-25T04:28:23;8.60;99.90
1778;DHT22;886;50.082;8.222;2023-04-25T04:30:50;8.60;99.90
1778;DHT22;886;50.082;8.222;2023-04-25T04:33:19;8.50;99.90
1778;DHT22;886;50.082;8.222;2023-04-25T04:35:46;8.40;99.90
1778;DHT22;886;50.082;8.222;2023-04-25T04:38:13;8.30;99.90
1778;DHT22;886;50.082;8.222;2023-04-25T04:40:44;8.40;99.90
1778;DHT22;886;50.082;8.222;2023-04-25T04:43:11;8.40;99.90
1778;DHT22;886;50.082;8.222;2023-04-25T04:45:38;8.40;99.90
1778;DHT22;886;50.082;8.222;2023-04-25T04:48:06;8.30;99.90
1778;DHT22;886;50.082;8.222;2023-04-25T04:50:34;8.40;99.90
1778;DHT22;886;50.082;8.222;2023-04-25T04:53:02;8.40;99.90
1778;DHT22;886;50.082;8.222;2023-04-25T04:55:30;8.30;99.90
1778;DHT22;886;50.082;8.222;2023-04-25T04:58:01;8.30;99.90
1778;DHT22;886;50.082;8.222;2023-04-25T05:00:28;8.30;99.90
1778;DHT22;886;50.082;8.222;2023-04-25T05:02:56;8.30;99.90
1778;DHT22;886;50.082;8.222;2023-04-25T05:05:24;8.40;99.90
1778;DHT22;886;50.082;8.222;2023-04-25T05:07:51;8.40;99.90
1778;DHT22;886;50.082;8.222;2023-04-25T05:10:21;8.40;99.90
1778;DHT22;886;50.082;8.222;2023-04-25T05:12:48;8.40;99.90
1778;DHT22;886;50.082;8.222;2023-04-25T05:15:16;8.50;99.90
1778;DHT22;886;50.082;8.222;2023-04-25T05:17:43;8.50;99.90
1778;DHT22;886;50.082;8.222;2023-04-25T05:20:11;8.60;99.90
1778;DHT22;886;50.082;8.222;2023-04-25T05:22:40;8.70;99.90
1778;DHT22;886;50.082;8.222;2023-04-25T05:25:08;8.70;99.90
1778;DHT22;886;50.082;8.222;2023-04-25T05:27:36;8.80;99.90
1778;DHT22;886;50.082;8.222;2023-04-25T05:30:12;8.80;99.90
1778;DHT22;886;50.082;8.222;2023-04-25T05:32:40;8.90;99.90
1778;DHT22;886;50.082;8.222;2023-04-25T05:35:08;8.90;99.90
1778;DHT22;886;50.082;8.222;2023-04-25T05:37:38;8.90;99.90
1778;DHT22;886;50.082;8.222;2023-04-25T05:40:07;8.80;99.90
1778;DHT22;886;50.082;8.222;2023-04-25T05:42:41;8.80;99.90
1778;DHT22;886;50.082;8.222;2023-04-25T05:45:09;9.10;99.90
1778;DHT22;886;50.082;8.222;2023-04-25T05:47:38;9.20;99.90
1778;DHT22;886;50.082;8.222;2023-04-25T05:50:08;9.30;99.90
1778;DHT22;886;50.082;8.222;2023-04-25T05:52:38;9.40;99.90
1778;DHT22;886;50.082;8.222;2023-04-25T05:55:06;9.50;99.90
1778;DHT22;886;50.082;8.222;2023-04-25T05:57:34;9.60;99.90
1778;DHT22;886;50.082;8.222;2023-04-25T06:00:01;9.70;99.90
1778;DHT22;886;50.082;8.222;2023-04-25T06:02:30;9.70;99.90
1778;DHT22;886;50.082;8.222;2023-04-25T06:04:59;9.70;99.90
1778;DHT22;886;50.082;8.222;2023-04-25T06:07:27;9.70;99.90
1778;DHT22;886;50.082;8.222;2023-04-25T06:10:00;9.80;99.90
1778;DHT22;886;50.082;8.222;2023-04-25T06:12:28;9.70;99.90
1778;DHT22;886;50.082;8.222;2023-04-25T06:14:55;9.60;99.90
1778;DHT22;886;50.082;8.222;2023-04-25T06:17:22;9.60;99.90
1778;DHT22;886;50.082;8.222;2023-04-25T06:19:52;9.60;99.90
1778;DHT22;886;50.082;8.222;2023-04-25T06:22:23;9.50;99.90
1778;DHT22;886;50.082;8.222;2023-04-25T06:24:50;9.50;99.90
1778;DHT22;886;50.082;8.222;2023-04-25T06:27:17;9.40;99.90
1778;DHT22;886;50.082;8.222;2023-04-25T06:29:51;9.40;99.90
1778;DHT22;886;50.082;8.222;2023-04-25T06:32:18;9.40;99.90
1778;DHT22;886;50.082;8.222;2023-04-25T06:34:52;9.40;99.90
1778;DHT22;886;50.082;8.222;2023-04-25T06:37:21;9.60;99.90
1778;DHT22;886;50.082;8.222;2023-04-25T06:39:48;9.70;99.90
1778;DHT22;886;50.082;8.222;2023-04-25T06:42:15;10.00;99.90
1778;DHT22;886;50.082;8.222;2023-04-25T06:44:42;10.20;99.90
1778;DHT22;886;50.082;8.222;2023-04-25T06:47:10;10.40;99.90
1778;DHT22;886;50.082;8.222;2023-04-25T06:49:37;10.70;99.90
1778;DHT22;886;50.082;8.222;2023-04-25T06:52:05;10.90;99.90
1778;DHT22;886;50.082;8.222;2023-04-25T06:54:36;11.00;99.90
1778;DHT22;886;50.082;8.222;2023-04-25T06:57:03;11.30;99.90
1778;DHT22;886;50.082;8.222;2023-04-25T06:59:31;11.60;99.90
1778;DHT22;886;50.082;8.222;2023-04-25T07:01:59;11.80;99.90
1778;DHT22;886;50.082;8.222;2023-04-25T07:04:30;12.00;99.20
1778;DHT22;886;50.082;8.222;2023-04-25T07:06:58;12.00;99.20
1778;DHT22;886;50.082;8.222;2023-04-25T07:09:27;13.30;97.80
1778;DHT22;886;50.082;8.222;2023-04-25T07:11:56;14.70;95.50
1778;DHT22;886;50.082;8.222;2023-04-25T07:14:29;16.10;92.70
1778;DHT22;886;50.082;8.222;2023-04-25T07:16:56;16.10;92.10
1778;DHT22;886;50.082;8.222;2023-04-25T07:19:24;14.50;94.00
1778;DHT22;886;50.082;8.222;2023-04-25T07:21:53;13.60;95.20
1778;DHT22;886;50.082;8.222;2023-04-25T07:24:20;12.70;96.20
1778;DHT22;886;50.082;8.222;2023-04-25T07:26:48;12.10;96.80
1778;DHT22;886;50.082;8.222;2023-04-25T07:29:16;11.50;97.50
1778;DHT22;886;50.082;8.222;2023-04-25T07:31:43;11.30;97.90
1778;DHT22;886;50.082;8.222;2023-04-25T07:34:27;11.20;98.60
1778;DHT22;886;50.082;8.222;2023-04-25T07:36:56;11.00;98.60
1778;DHT22;886;50.082;8.222;2023-04-25T07:39:23;11.00;98.90
1778;DHT22;886;50.082;8.222;2023-04-25T07:41:51;10.90;98.70
1778;DHT22;886;50.082;8.222;2023-04-25T07:44:22;11.10;99.70
1778;DHT22;886;50.082;8.222;2023-04-25T07:46:49;11.70;99.30
1778;DHT22;886;50.082;8.222;2023-04-25T07:49:17;11.70;98.10
1778;DHT22;886;50.082;8.222;2023-04-25T07:51:47;11.40;97.40
1778;DHT22;886;50.082;8.222;2023-04-25T07:54:14;11.70;97.30
1778;DHT22;886;50.082;8.222;2023-04-25T07:56:48;11.70;97.80
1778;DHT22;886;50.082;8.222;2023-04-25T07:59:24;11.90;96.90
1778;DHT22;886;50.082;8.222;2023-04-25T08:01:52;12.00;97.20
1778;DHT22;886;50.082;8.222;2023-04-25T08:04:24;12.00;96.80
1778;DHT22;886;50.082;8.222;2023-04-25T08:06:55;12.30;96.10
1778;DHT22;886;50.082;8.222;2023-04-25T08:09:26;12.90;95.80
1778;DHT22;886;50.082;8.222;2023-04-25T08:11:53;13.00;95.20
1778;DHT22;886;50.082;8.222;2023-04-25T08:14:20;13.40;95.20
1778;DHT22;886;50.082;8.222;2023-04-25T08:16:49;14.90;93.50
1778;DHT22;886;50.082;8.222;2023-04-25T08:19:24;16.20;91.90
1778;DHT22;886;50.082;8.222;2023-04-25T08:21:55;16.70;90.90
1778;DHT22;886;50.082;8.222;2023-04-25T08:24:23;15.80;90.10
1778;DHT22;886;50.082;8.222;2023-04-25T08:26:51;15.00;90.40
1778;DHT22;886;50.082;8.222;2023-04-25T08:29:18;14.50;91.00
1778;DHT22;886;50.082;8.222;2023-04-25T08:31:47;13.90;91.70
1778;DHT22;886;50.082;8.222;2023-04-25T08:34:14;13.40;92.50
1778;DHT22;886;50.082;8.222;2023-04-25T08:36:45;13.10;93.20
1778;DHT22;886;50.082;8.222;2023-04-25T08:39:12;12.70;94.00
1778;DHT22;886;50.082;8.222;2023-04-25T08:41:40;12.90;93.50
1778;DHT22;886;50.082;8.222;2023-04-25T08:44:10;13.20;93.30
1778;DHT22;886;50.082;8.222;2023-04-25T08:46:39;13.20;93.30
1778;DHT22;886;50.082;8.222;2023-04-25T08:49:12;13.80;93.20
1778;DHT22;886;50.082;8.222;2023-04-25T08:51:44;14.10;92.70
1778;DHT22;886;50.082;8.222;2023-04-25T08:54:14;14.10;92.30
1778;DHT22;886;50.082;8.222;2023-04-25T08:57:02;13.50;92.60
1778;DHT22;886;50.082;8.222;2023-04-25T08:59:32;13.40;93.70
1778;DHT22;886;50.082;8.222;2023-04-25T09:02:03;13.30;93.40
1778;DHT22;886;50.082;8.222;2023-04-25T09:04:31;13.20;93.60
1778;DHT22;886;50.082;8.222;2023-04-25T09:07:01;13.10;93.60
1778;DHT22;886;50.082;8.222;2023-04-25T09:09:29;13.00;93.40
1778;DHT22;886;50.082;8.222;2023-04-25T09:11:56;13.10;93.70
1778;DHT22;886;50.082;8.222;2023-04-25T09:14:23;13.20;93.70
1778;DHT22;886;50.082;8.222;2023-04-25T09:17:02;13.20;93.60
1778;DHT22;886;50.082;8.222;2023-04-25T09:19:36;12.80;93.40
1778;DHT22;886;50.082;8.222;2023-04-25T09:22:08;12.80;93.60
1778;DHT22;886;50.082;8.222;2023-04-25T09:24:36;12.80;93.30
1778;DHT22;886;50.082;8.222;2023-04-25T09:27:05;12.80;93.00
1778;DHT22;886;50.082;8.222;2023-04-25T09:29:34;13.10;92.90
1778;DHT22;886;50.082;8.222;2023-04-25T09:32:18;13.20;92.40
1778;DHT22;886;50.082;8.222;2023-04-25T09:34:51;13.40;92.30
1778;DHT22;886;50.082;8.222;2023-04-25T09:37:23;13.30;92.70
1778;DHT22;886;50.082;8.222;2023-04-25T09:39:54;13.00;93.20
1778;DHT22;886;50.082;8.222;2023-04-25T09:42:41;13.00;93.60
1778;DHT22;886;50.082;8.222;2023-04-25T09:45:12;12.50;93.50
1778;DHT22;886;50.082;8.222;2023-04-25T09:47:45;12.20;94.00
1778;DHT22;886;50.082;8.222;2023-04-25T09:50:17;12.00;94.50
1778;DHT22;886;50.082;8.222;2023-04-25T09:53:09;11.90;94.80
1778;DHT22;886;50.082;8.222;2023-04-25T09:55:41;11.90;94.90
1778;DHT22;886;50.082;8.222;2023-04-25T09:58:11;12.10;95.20
1778;DHT22;886;50.082;8.222;2023-04-25T10:00:40;12.20;94.60
1778;DHT22;886;50.082;8.222;2023-04-25T10:03:17;12.40;94.30
1778;DHT22;886;50.082;8.222;2023-04-25T10:05:48;12.60;94.20
1778;DHT22;886;50.082;8.222;2023-04-25T10:08:19;12.70;93.40
1778;DHT22;886;50.082;8.222;2023-04-25T10:10:48;12.50;93.40
1778;DHT22;886;50.082;8.222;2023-04-25T10:13:20;12.50;93.60
1778;DHT22;886;50.082;8.222;2023-04-25T10:15:48;12.20;93.40
1778;DHT22;886;50.082;8.222;2023-04-25T10:18:19;12.10;93.50
1778;DHT22;886;50.082;8.222;2023-04-25T10:20:56;12.20;93.50
1778;DHT22;886;50.082;8.222;2023-04-25T10:23:27;12.30;93.30
1778;DHT22;886;50.082;8.222;2023-04-25T10:25:56;12.10;93.10
1778;DHT22;886;50.082;8.222;2023-04-25T10:28:24;11.90;93.00
1778;DHT22;886;50.082;8.222;2023-04-25T10:31:00;11.80;93.20
1778;DHT22;886;50.082;8.222;2023-04-25T10:33:46;11.60;93.20
1778;DHT22;886;50.082;8.222;2023-04-25T10:36:21;11.50;93.40
1778;DHT22;886;50.082;8.222;2023-04-25T10:39:03;11.60;93.70
1778;DHT22;886;50.082;8.222;2023-04-25T10:41:48;11.60;94.10
1778;DHT22;886;50.082;8.222;2023-04-25T10:44:22;11.80;93.50
1778;DHT22;886;50.082;8.222;2023-04-25T10:46:55;11.80;93.00
1778;DHT22;886;50.082;8.222;2023-04-25T10:49:32;11.90;92.70
1778;DHT22;886;50.082;8.222;2023-04-25T10:52:16;11.90;92.60
1778;DHT22;886;50.082;8.222;2023-04-25T10:54:48;12.10;92.60
1778;DHT22;886;50.082;8.222;2023-04-25T10:57:36;12.10;92.30
1778;DHT22;886;50.082;8.222;2023-04-25T11:00:13;12.10;92.30
1778;DHT22;886;50.082;8.222;2023-04-25T11:02:44;12.20;92.50
1778;DHT22;886;50.082;8.222;2023-04-25T11:05:23;12.10;92.40
1778;DHT22;886;50.082;8.222;2023-04-25T11:08:24;12.10;92.80
1778;DHT22;886;50.082;8.222;2023-04-25T11:11:04;12.10;93.00
1778;DHT22;886;50.082;8.222;2023-04-25T11:13:31;12.40;93.00
1778;DHT22;886;50.082;8.222;2023-04-25T11:16:02;12.40;92.50
1778;DHT22;886;50.082;8.222;2023-04-25T11:18:43;12.40;92.70
1778;DHT22;886;50.082;8.222;2023-04-25T11:21:11;12.10;92.60
1778;DHT22;886;50.082;8.222;2023-04-25T11:23:45;12.10;92.20
1778;DHT22;886;50.082;8.222;2023-04-25T11:26:14;12.20;92.00
1778;DHT22;886;50.082;8.222;2023-04-25T11:28:45;12.40;92.10
1778;DHT22;886;50.082;8.222;2023-04-25T11:31:14;12.50;92.00
1778;DHT22;886;50.082;8.222;2023-04-25T11:33:42;12.50;91.90
1778;DHT22;886;50.082;8.222;2023-04-25T11:36:12;12.70;91.90
1778;DHT22;886;50.082;8.222;2023-04-25T11:38:41;12.70;91.90
1778;DHT22;886;50.082;8.222;2023-04-25T11:41:12;12.50;91.80
1778;DHT22;886;50.082;8.222;2023-04-25T11:43:40;12.30;92.20
1778;DHT22;886;50.082;8.222;2023-04-25T11:46:09;12.30;92.00
1778;DHT22;886;50.082;8.222;2023-04-25T11:48:38;12.40;92.00
1778;DHT22;886;50.082;8.222;2023-04-25T11:51:05;12.30;92.10
1778;DHT22;886;50.082;8.222;2023-04-25T11:53:33;12.40;92.30
1778;DHT22;886;50.082;8.222;2023-04-25T11:56:10;12.60;91.80
1778;DHT22;886;50.082;8.222;2023-04-25T11:58:55;12.60;90.70
1778;DHT22;886;50.082;8.222;2023-04-25T12:01:27;12.40;90.90
1778;DHT22;886;50.082;8.222;2023-04-25T12:04:09;12.60;90.90
1778;DHT22;886;50.082;8.222;2023-04-25T12:06:37;12.60;90.60
1778;DHT22;886;50.082;8.222;2023-04-25T12:09:09;12.80;90.70
1778;DHT22;886;50.082;8.222;2023-04-25T12:11:57;13.00;91.00
1778;DHT22;886;50.082;8.222;2023-04-25T12:14:27;13.20;90.50
1778;DHT22;886;50.082;8.222;2023-04-25T12:16:56;13.30;90.30
1778;DHT22;886;50.082;8.222;2023-04-25T12:19:25;13.30;90.30
1778;DHT22;886;50.082;8.222;2023-04-25T12:22:00;13.30;89.90
1778;DHT22;886;50.082;8.222;2023-04-25T12:24:28;13.30;89.00
1778;DHT22;886;50.082;8.222;2023-04-25T12:27:05;13.20;89.40
1778;DHT22;886;50.082;8.222;2023-04-25T12:29:35;13.20;89.50
1778;DHT22;886;50.082;8.222;2023-04-25T12:32:15;13.20;89.40
1778;DHT22;886;50.082;8.222;2023-04-25T12:34:43;13.00;89.80
1778;DHT22;886;50.082;8.222;2023-04-25T12:37:12;13.00;90.30
1778;DHT22;886;50.082;8.222;2023-04-25T12:39:39;12.70;90.10
1778;DHT22;886;50.082;8.222;2023-04-25T12:42:08;12.70;90.60
1778;DHT22;886;50.082;8.222;2023-04-25T12:44:42;12.60;90.90
1778;DHT22;886;50.082;8.222;2023-04-25T12:47:09;12.60;91.00
1778;DHT22;886;50.082;8.222;2023-04-25T12:49:37;12.50;91.20
1778;DHT22;886;50.082;8.222;2023-04-25T12:52:04;12.50;91.00
1778;DHT22;886;50.082;8.222;2023-04-25T12:54:32;12.40;90.90
1778;DHT22;886;50.082;8.222;2023-04-25T12:57:05;12.50;91.10
1778;DHT22;886;50.082;8.222;2023-04-25T12:59:33;12.50;91.10
1778;DHT22;886;50.082;8.222;2023-04-25T13:02:01;12.50;90.60
1778;DHT22;886;50.082;8.222;2023-04-25T13:04:28;12.60;90.10
1778;DHT22;886;50.082;8.222;2023-04-25T13:07:01;12.90;90.20
1778;DHT22;886;50.082;8.222;2023-04-25T13:09:28;13.00;89.80
1778;DHT22;886;50.082;8.222;2023-04-25T13:11:56;13.20;89.70
1778;DHT22;886;50.082;8.222;2023-04-25T13:14:27;13.20;88.90
1778;DHT22;886;50.082;8.222;2023-04-25T13:16:56;13.10;88.40
1778;DHT22;886;50.082;8.222;2023-04-25T13:19:23;12.90;87.70
1778;DHT22;886;50.082;8.222;2023-04-25T13:21:54;12.90;88.20
1778;DHT22;886;50.082;8.222;2023-04-25T13:24:21;12.80;88.10
1778;DHT22;886;50.082;8.222;2023-04-25T13:26:49;12.80;89.60
1778;DHT22;886;50.082;8.222;2023-04-25T13:29:16;12.90;90.00
1778;DHT22;886;50.082;8.222;2023-04-25T13:31:44;13.00;89.50
1778;DHT22;886;50.082;8.222;2023-04-25T13:34:12;13.10;89.40
1778;DHT22;886;50.082;8.222;2023-04-25T13:36:40;13.10;89.60
1778;DHT22;886;50.082;8.222;2023-04-25T13:39:07;13.10;89.20
1778;DHT22;886;50.082;8.222;2023-04-25T13:41:35;13.30;89.30
1778;DHT22;886;50.082;8.222;2023-04-25T13:44:02;13.30;89.50
1778;DHT22;886;50.082;8.222;2023-04-25T13:46:30;13.20;88.50
1778;DHT22;886;50.082;8.222;2023-04-25T13:49:14;13.20;87.50
1778;DHT22;886;50.082;8.222;2023-04-25T13:51:41;13.10;88.60
1778;DHT22;886;50.082;8.222;2023-04-25T13:54:09;12.80;88.90
1778;DHT22;886;50.082;8.222;2023-04-25T13:56:38;12.60;88.90
1778;DHT22;886;50.082;8.222;2023-04-25T13:59:05;12.50;89.00
1778;DHT22;886;50.082;8.222;2023-04-25T14:01:33;12.40;87.80
1778;DHT22;886;50.082;8.222;2023-04-25T14:04:02;12.30;88.00
1778;DHT22;886;50.082;8.222;2023-04-25T14:06:34;12.30;88.10
1778;DHT22;886;50.082;8.222;2023-04-25T14:09:02;12.30;87.20
1778;DHT22;886;50.082;8.222;2023-04-25T14:11:31;12.40;86.60
1778;DHT22;886;50.082;8.222;2023-04-25T14:13:58;12.50;86.40
1778;DHT22;886;50.082;8.222;2023-04-25T14:16:26;12.80;86.70
1778;DHT22;886;50.082;8.222;2023-04-25T14:18:53;13.00;85.10
1778;DHT22;886;50.082;8.222;2023-04-25T14:21:21;13.10;87.20
1778;DHT22;886;50.082;8.222;2023-04-25T14:23:49;13.00;86.80
1778;DHT22;886;50.082;8.222;2023-04-25T14:26:17;12.90;87.10
1778;DHT22;886;50.082;8.222;2023-04-25T14:28:44;12.80;86.70
1778;DHT22;886;50.082;8.222;2023-04-25T14:31:12;12.70;86.30
1778;DHT22;886;50.082;8.222;2023-04-25T14:33:39;12.70;86.90
1778;DHT22;886;50.082;8.222;2023-04-25T14:36:09;12.70;87.20
1778;DHT22;886;50.082;8.222;2023-04-25T14:38:37;12.70;86.00
1778;DHT22;886;50.082;8.222;2023-04-25T14:41:06;12.60;86.60
1778;DHT22;886;50.082;8.222;2023-04-25T14:43:33;12.60;85.80
1778;DHT22;886;50.082;8.222;2023-04-25T14:46:00;12.40;85.20
1778;DHT22;886;50.082;8.222;2023-04-25T14:48:29;12.40;86.50
1778;DHT22;886;50.082;8.222;2023-04-25T14:50:56;12.40;86.90
1778;DHT22;886;50.082;8.222;2023-04-25T14:53:27;12.40;86.60
1778;DHT22;886;50.082;8.222;2023-04-25T14:56:13;12.60;87.10
1778;DHT22;886;50.082;8.222;2023-04-25T14:58:41;12.50;86.40
1778;DHT22;886;50.082;8.222;2023-04-25T15:01:08;12.60;86.20
1778;DHT22;886;50.082;8.222;2023-04-25T15:03:36;12.60;85.40
1778;DHT22;886;50.082;8.222;2023-04-25T15:06:04;12.70;85.80
1778;DHT22;886;50.082;8.222;2023-04-25T15:08:32;12.60;86.00
1778;DHT22;886;50.082;8.222;2023-04-25T15:11:00;12.50;84.90
1778;DHT22;886;50.082;8.222;2023-04-25T15:13:31;12.30;85.60
1778;DHT22;886;50.082;8.222;2023-04-25T15:15:59;12.10;86.10
1778;DHT22;886;50.082;8.222;2023-04-25T15:18:31;12.20;86.90
1778;DHT22;886;50.082;8.222;2023-04-25T15:21:01;12.20;86.60
1778;DHT22;886;50.082;8.222;2023-04-25T15:23:31;12.30;86.00
1778;DHT22;886;50.082;8.222;2023-04-25T15:26:01;12.30;86.30
1778;DHT22;886;50.082;8.222;2023-04-25T15:28:30;12.40;84.00
1778;DHT22;886;50.082;8.222;2023-04-25T15:30:58;12.40;84.40
1778;DHT22;886;50.082;8.222;2023-04-25T15:33:26;12.40;83.90
1778;DHT22;886;50.082;8.222;2023-04-25T15:35:53;12.50;82.40
1778;DHT22;886;50.082;8.222;2023-04-25T15:38:20;12.30;82.00
1778;DHT22;886;50.082;8.222;2023-04-25T15:40:48;12.40;82.90
1778;DHT22;886;50.082;8.222;2023-04-25T15:43:15;12.40;83.30
1778;DHT22;886;50.082;8.222;2023-04-25T15:45:47;12.40;82.60
1778;DHT22;886;50.082;8.222;2023-04-25T15:48:14;12.30;82.60
1778;DHT22;886;50.082;8.222;2023-04-25T15:50:42;12.30;82.50
1778;DHT22;886;50.082;8.222;2023-04-25T15:53:10;12.40;82.20
1778;DHT22;886;50.082;8.222;2023-04-25T15:55:37;12.50;82.40
1778;DHT22;886;50.082;8.222;2023-04-25T15:58:07;12.60;80.80
1778;DHT22;886;50.082;8.222;2023-04-25T16:00:37;12.50;80.00
1778;DHT22;886;50.082;8.222;2023-04-25T16:03:11;12.50;79.90
1778;DHT22;886;50.082;8.222;2023-04-25T16:05:40;12.60;80.10
1778;DHT22;886;50.082;8.222;2023-04-25T16:08:08;12.60;80.80
1778;DHT22;886;50.082;8.222;2023-04-25T16:10:38;12.50;80.00
1778;DHT22;886;50.082;8.222;2023-04-25T16:13:05;12.40;80.00
1778;DHT22;886;50.082;8.222;2023-04-25T16:15:53;12.40;81.00
1778;DHT22;886;50.082;8.222;2023-04-25T16:18:22;12.30;80.90
1778;DHT22;886;50.082;8.222;2023-04-25T16:20:50;12.30;80.70
1778;DHT22;886;50.082;8.222;2023-04-25T16:23:17;12.30;81.90
1778;DHT22;886;50.082;8.222;2023-04-25T16:25:45;12.20;82.50
1778;DHT22;886;50.082;8.222;2023-04-25T16:28:13;12.30;81.50
1778;DHT22;886;50.082;8.222;2023-04-25T16:30:40;12.40;82.70
1778;DHT22;886;50.082;8.222;2023-04-25T16:33:10;12.30;82.70
1778;DHT22;886;50.082;8.222;2023-04-25T16:35:39;12.20;82.10
1778;DHT22;886;50.082;8.222;2023-04-25T16:38:06;12.10;82.60
1778;DHT22;886;50.082;8.222;2023-04-25T16:40:37;12.00;83.30